sensor_id;sensor_type;location;lat;lon;timestamp;temperature;humidity
45693;DHT22;31402;44.752;-0.374;2023-02-02T00:01:56;10.90;96.80
45693;DHT22;31402;44.752;-0.374;2023-02-02T00:04:28;10.90;96.80
45693;DHT22;31402;44.752;-0.374;2023-02-02T00:06:55;10.70;97.00
45693;DHT22;31402;44.752;-0.374;2023-02-02T00:09:27;10.60;97.30
45693;DHT22;31402;44.752;-0.374;2023-02-02T00:11:54;10.50;97.50
45693;DHT22;31402;44.752;-0.374;2023-02-02T00:14:20;10.40;97.60
45693;DHT22;31402;44.752;-0.374;2023-02-02T00:16:51;10.40;97.60
45693;DHT22;31402;44.752;-0.374;2023-02-02T00:19:23;10.50;97.60
45693;DHT22;31402;44.752;-0.374;2023-02-02T00:21:51;10.50;97.60
45693;DHT22;31402;44.752;-0.374;2023-02-02T00:24:17;10.50;97.50
45693;DHT22;31402;44.752;-0.374;2023-02-02T00:26:46;10.50;97.60
45693;DHT22;31402;44.752;-0.374;2023-02-02T00:29:24;10.50;97.70
45693;DHT22;31402;44.752;-0.374;2023-02-02T00:31:50;10.40;97.80
45693;DHT22;31402;44.752;-0.374;2023-02-02T00:34:17;10.50;97.80
45693;DHT22;31402;44.752;-0.374;2023-02-02T00:36:43;10.60;97.60
45693;DHT22;31402;44.752;-0.374;2023-02-02T00:39:13;10.60;97.60
45693;DHT22;31402;44.752;-0.374;2023-02-02T00:41:39;10.70;97.50
45693;DHT22;31402;44.752;-0.374;2023-02-02T00:44:05;10.60;97.50
45693;DHT22;31402;44.752;-0.374;2023-02-02T00:46:49;10.50;97.60
45693;DHT22;31402;44.752;-0.374;2023-02-02T00:49:15;10.30;97.70
45693;DHT22;31402;44.752;-0.374;2023-02-02T00:51:40;10.30;97.80
45693;DHT22;31402;44.752;-0.374;2023-02-02T00:54:06;10.20;98.00
45693;DHT22;31402;44.752;-0.374;2023-02-02T00:56:32;10.30;98.00
45693;DHT22;31402;44.752;-0.374;2023-02-02T00:58:57;10.50;97.60
45693;DHT22;31402;44.752;-0.374;2023-02-02T01:01:23;10.50;97.50
45693;DHT22;31402;44.752;-0.374;2023-02-02T01:03:50;10.60;97.30
45693;DHT22;31402;44.752;-0.374;2023-02-02T01:06:16;10.50;97.50
45693;DHT22;31402;44.752;-0.374;2023-02-02T01:08:43;10.50;97.50
45693;DHT22;31402;44.752;-0.374;2023-02-02T01:11:09;10.60;97.30
45693;DHT22;31402;44.752;-0.374;2023-02-02T01:13:35;10.70;97.20
45693;DHT22;31402;44.752;-0.374;2023-02-02T01:16:01;10.70;97.10
45693;DHT22;31402;44.752;-0.374;2023-02-02T01:18:28;10.80;96.90
45693;DHT22;31402;44.752;-0.374;2023-02-02T01:21:06;10.70;97.10
45693;DHT22;31402;44.752;-0.374;2023-02-02T01:23:33;10.70;97.00
45693;DHT22;31402;44.752;-0.374;2023-02-02T01:26:00;10.70;96.90
45693;DHT22;31402;44.752;-0.374;2023-02-02T01:28:27;10.80;96.90
45693;DHT22;31402;44.752;-0.374;2023-02-02T01:30:54;10.80;96.80
45693;DHT22;31402;44.752;-0.374;2023-02-02T01:33:20;10.70;96.90
45693;DHT22;31402;44.752;-0.374;2023-02-02T01:38:11;10.70;96.90
45693;DHT22;31402;44.752;-0.374;2023-02-02T01:40:50;10.70;96.80
45693;DHT22;31402;44.752;-0.374;2023-02-02T01:46:12;10.50;97.00
45693;DHT22;31402;44.752;-0.374;2023-02-02T01:48:40;10.50;97.00
45693;DHT22;31402;44.752;-0.374;2023-02-02T01:51:12;10.50;97.00
45693;DHT22;31402;44.752;-0.374;2023-02-02T01:53:39;10.50;97.00
45693;DHT22;31402;44.752;-0.374;2023-02-02T01:56:06;10.40;96.90
45693;DHT22;31402;44.752;-0.374;2023-02-02T01:58:36;10.40;97.10
45693;DHT22;31402;44.752;-0.374;2023-02-02T02:01:03;10.40;97.40
45693;DHT22;31402;44.752;-0.374;2023-02-02T02:03:32;10.50;97.10
45693;DHT22;31402;44.752;-0.374;2023-02-02T02:06:08;10.50;97.00
45693;DHT22;31402;44.752;-0.374;2023-02-02T02:11:20;10.50;96.90
45693;DHT22;31402;44.752;-0.374;2023-02-02T02:13:47;10.60;96.80
45693;DHT22;31402;44.752;-0.374;2023-02-02T02:22:13;10.40;97.00
45693;DHT22;31402;44.752;-0.374;2023-02-02T02:28:33;10.10;97.40
45693;DHT22;31402;44.752;-0.374;2023-02-02T02:33:58;10.20;97.30
45693;DHT22;31402;44.752;-0.374;2023-02-02T02:39:39;10.20;97.10
45693;DHT22;31402;44.752;-0.374;2023-02-02T02:42:20;10.10;96.90
45693;DHT22;31402;44.752;-0.374;2023-02-02T02:44:48;10.10;97.10
45693;DHT22;31402;44.752;-0.374;2023-02-02T02:47:15;10.20;96.70
45693;DHT22;31402;44.752;-0.374;2023-02-02T02:49:43;10.20;96.60
45693;DHT22;31402;44.752;-0.374;2023-02-02T02:52:09;10.20;96.60
45693;DHT22;31402;44.752;-0.374;2023-02-02T02:54:38;10.30;96.50
45693;DHT22;31402;44.752;-0.374;2023-02-02T02:59:46;10.20;96.50
45693;DHT22;31402;44.752;-0.374;2023-02-02T03:08:09;10.10;96.60
45693;DHT22;31402;44.752;-0.374;2023-02-02T03:10:38;10.00;96.80
45693;DHT22;31402;44.752;-0.374;2023-02-02T03:13:09;10.10;96.90
45693;DHT22;31402;44.752;-0.374;2023-02-02T03:15:39;10.10;96.70
45693;DHT22;31402;44.752;-0.374;2023-02-02T03:18:04;10.20;96.60
45693;DHT22;31402;44.752;-0.374;2023-02-02T03:20:30;10.20;96.60
45693;DHT22;31402;44.752;-0.374;2023-02-02T03:22:56;10.20;96.60
45693;DHT22;31402;44.752;-0.374;2023-02-02T03:25:22;10.10;96.70
45693;DHT22;31402;44.752;-0.374;2023-02-02T03:27:48;10.20;96.50
45693;DHT22;31402;44.752;-0.374;2023-02-02T03:30:14;10.20;96.40
45693;DHT22;31402;44.752;-0.374;2023-02-02T03:32:40;10.20;96.30
45693;DHT22;31402;44.752;-0.374;2023-02-02T03:35:07;10.30;96.30
45693;DHT22;31402;44.752;-0.374;2023-02-02T03:37:33;10.20;96.30
45693;DHT22;31402;44.752;-0.374;2023-02-02T03:39:59;10.20;96.30
45693;DHT22;31402;44.752;-0.374;2023-02-02T03:42:24;10.20;96.30
45693;DHT22;31402;44.752;-0.374;2023-02-02T03:44:50;10.10;96.50
45693;DHT22;31402;44.752;-0.374;2023-02-02T03:47:16;10.00;96.60
45693;DHT22;31402;44.752;-0.374;2023-02-02T03:49:42;10.00;96.80
45693;DHT22;31402;44.752;-0.374;2023-02-02T03:52:08;10.00;96.70
45693;DHT22;31402;44.752;-0.374;2023-02-02T03:54:33;10.10;96.60
45693;DHT22;31402;44.752;-0.374;2023-02-02T03:56:59;10.10;96.50
45693;DHT22;31402;44.752;-0.374;2023-02-02T03:59:25;10.10;96.50
45693;DHT22;31402;44.752;-0.374;2023-02-02T04:01:51;10.10;96.50
45693;DHT22;31402;44.752;-0.374;2023-02-02T04:04:16;10.00;96.60
45693;DHT22;31402;44.752;-0.374;2023-02-02T04:06:42;10.00;96.60
45693;DHT22;31402;44.752;-0.374;2023-02-02T04:09:08;10.10;96.60
45693;DHT22;31402;44.752;-0.374;2023-02-02T04:11:33;10.00;96.60
45693;DHT22;31402;44.752;-0.374;2023-02-02T04:13:59;10.00;96.70
45693;DHT22;31402;44.752;-0.374;2023-02-02T04:16:25;10.00;96.70
45693;DHT22;31402;44.752;-0.374;2023-02-02T04:18:51;9.90;96.70
45693;DHT22;31402;44.752;-0.374;2023-02-02T04:21:16;9.90;96.60
45693;DHT22;31402;44.752;-0.374;2023-02-02T04:23:42;10.00;96.70
45693;DHT22;31402;44.752;-0.374;2023-02-02T04:26:08;9.90;96.70
45693;DHT22;31402;44.752;-0.374;2023-02-02T04:28:34;9.90;96.80
45693;DHT22;31402;44.752;-0.374;2023-02-02T04:31:00;9.80;96.80
45693;DHT22;31402;44.752;-0.374;2023-02-02T04:33:27;9.80;96.80
45693;DHT22;31402;44.752;-0.374;2023-02-02T04:35:53;9.80;96.70
45693;DHT22;31402;44.752;-0.374;2023-02-02T04:38:19;9.90;96.60
45693;DHT22;31402;44.752;-0.374;2023-02-02T04:40:46;9.90;96.50
45693;DHT22;31402;44.752;-0.374;2023-02-02T04:43:13;9.90;96.40
45693;DHT22;31402;44.752;-0.374;2023-02-02T04:45:39;9.90;96.30
45693;DHT22;31402;44.752;-0.374;2023-02-02T04:48:05;9.80;96.40
45693;DHT22;31402;44.752;-0.374;2023-02-02T04:50:31;9.70;96.60
45693;DHT22;31402;44.752;-0.374;2023-02-02T04:52:57;9.70;96.90
45693;DHT22;31402;44.752;-0.374;2023-02-02T04:55:23;9.70;96.90
45693;DHT22;31402;44.752;-0.374;2023-02-02T04:57:49;9.70;96.90
45693;DHT22;31402;44.752;-0.374;2023-02-02T05:00:15;9.80;96.60
45693;DHT22;31402;44.752;-0.374;2023-02-02T05:02:41;9.80;96.40
45693;DHT22;31402;44.752;-0.374;2023-02-02T05:05:10;9.70;96.40
45693;DHT22;31402;44.752;-0.374;2023-02-02T05:07:37;9.60;96.70
45693;DHT22;31402;44.752;-0.374;2023-02-02T05:10:05;9.50;96.90
45693;DHT22;31402;44.752;-0.374;2023-02-02T05:12:31;9.40;96.90
45693;DHT22;31402;44.752;-0.374;2023-02-02T05:14:57;9.50;97.00
45693;DHT22;31402;44.752;-0.374;2023-02-02T05:17:26;9.50;97.10
45693;DHT22;31402;44.752;-0.374;2023-02-02T05:19:51;9.60;96.90
45693;DHT22;31402;44.752;-0.374;2023-02-02T05:22:17;9.60;96.90
45693;DHT22;31402;44.752;-0.374;2023-02-02T05:24:43;9.70;96.90
45693;DHT22;31402;44.752;-0.374;2023-02-02T05:27:09;9.70;96.80
45693;DHT22;31402;44.752;-0.374;2023-02-02T05:29:35;9.70;96.70
45693;DHT22;31402;44.752;-0.374;2023-02-02T05:32:00;9.70;96.60
45693;DHT22;31402;44.752;-0.374;2023-02-02T05:34:26;9.60;96.80
45693;DHT22;31402;44.752;-0.374;2023-02-02T05:36:52;9.60;96.90
45693;DHT22;31402;44.752;-0.374;2023-02-02T05:39:17;9.50;97.00
45693;DHT22;31402;44.752;-0.374;2023-02-02T05:41:43;9.50;97.00
45693;DHT22;31402;44.752;-0.374;2023-02-02T05:44:12;9.50;97.00
45693;DHT22;31402;44.752;-0.374;2023-02-02T05:46:38;9.50;97.00
45693;DHT22;31402;44.752;-0.374;2023-02-02T05:49:04;9.70;97.00
45693;DHT22;31402;44.752;-0.374;2023-02-02T05:53:58;9.60;96.80
45693;DHT22;31402;44.752;-0.374;2023-02-02T05:56:24;9.60;96.90
45693;DHT22;31402;44.752;-0.374;2023-02-02T05:58:49;9.50;97.00
45693;DHT22;31402;44.752;-0.374;2023-02-02T06:01:17;9.50;97.20
45693;DHT22;31402;44.752;-0.374;2023-02-02T06:03:43;9.50;97.20
45693;DHT22;31402;44.752;-0.374;2023-02-02T06:06:09;9.50;97.10
45693;DHT22;31402;44.752;-0.374;2023-02-02T06:08:35;9.50;97.20
45693;DHT22;31402;44.752;-0.374;2023-02-02T06:11:15;9.50;97.30
45693;DHT22;31402;44.752;-0.374;2023-02-02T06:13:41;9.40;97.40
45693;DHT22;31402;44.752;-0.374;2023-02-02T06:16:07;9.50;97.50
45693;DHT22;31402;44.752;-0.374;2023-02-02T06:18:34;9.50;97.50
45693;DHT22;31402;44.752;-0.374;2023-02-02T06:21:01;9.60;97.40
45693;DHT22;31402;44.752;-0.374;2023-02-02T06:23:27;9.60;97.40
45693;DHT22;31402;44.752;-0.374;2023-02-02T06:25:53;9.60;97.30
45693;DHT22;31402;44.752;-0.374;2023-02-02T06:28:19;9.70;97.30
45693;DHT22;31402;44.752;-0.374;2023-02-02T06:30:45;9.70;97.10
45693;DHT22;31402;44.752;-0.374;2023-02-02T06:33:11;9.70;97.30
45693;DHT22;31402;44.752;-0.374;2023-02-02T06:35:37;9.70;97.20
45693;DHT22;31402;44.752;-0.374;2023-02-02T06:38:03;9.70;97.10
45693;DHT22;31402;44.752;-0.374;2023-02-02T06:40:29;9.60;97.10
45693;DHT22;31402;44.752;-0.374;2023-02-02T06:43:00;9.50;97.20
45693;DHT22;31402;44.752;-0.374;2023-02-02T06:45:26;9.50;97.40
45693;DHT22;31402;44.752;-0.374;2023-02-02T06:47:53;9.40;97.50
45693;DHT22;31402;44.752;-0.374;2023-02-02T06:50:19;9.40;97.60
45693;DHT22;31402;44.752;-0.374;2023-02-02T06:52:48;9.40;97.80
45693;DHT22;31402;44.752;-0.374;2023-02-02T06:55:15;9.50;97.70
45693;DHT22;31402;44.752;-0.374;2023-02-02T06:57:41;9.40;97.40
45693;DHT22;31402;44.752;-0.374;2023-02-02T07:00:07;9.40;97.60
45693;DHT22;31402;44.752;-0.374;2023-02-02T07:02:33;9.30;97.70
45693;DHT22;31402;44.752;-0.374;2023-02-02T07:05:00;9.30;97.80
45693;DHT22;31402;44.752;-0.374;2023-02-02T07:07:26;9.30;97.90
45693;DHT22;31402;44.752;-0.374;2023-02-02T07:09:52;9.20;97.80
45693;DHT22;31402;44.752;-0.374;2023-02-02T07:12:18;9.20;97.90
45693;DHT22;31402;44.752;-0.374;2023-02-02T07:14:44;9.40;97.90
45693;DHT22;31402;44.752;-0.374;2023-02-02T07:17:10;9.40;97.70
45693;DHT22;31402;44.752;-0.374;2023-02-02T07:19:36;9.40;97.40
45693;DHT22;31402;44.752;-0.374;2023-02-02T07:22:02;9.50;97.40
45693;DHT22;31402;44.752;-0.374;2023-02-02T07:24:28;9.50;97.40
45693;DHT22;31402;44.752;-0.374;2023-02-02T07:26:54;9.40;97.60
45693;DHT22;31402;44.752;-0.374;2023-02-02T07:29:19;9.20;97.70
45693;DHT22;31402;44.752;-0.374;2023-02-02T07:31:45;9.20;97.90
45693;DHT22;31402;44.752;-0.374;2023-02-02T07:34:11;9.20;97.90
45693;DHT22;31402;44.752;-0.374;2023-02-02T07:36:36;9.30;97.70
45693;DHT22;31402;44.752;-0.374;2023-02-02T07:39:03;9.30;97.70
45693;DHT22;31402;44.752;-0.374;2023-02-02T07:41:30;9.20;97.80
45693;DHT22;31402;44.752;-0.374;2023-02-02T07:43:56;9.30;98.30
45693;DHT22;31402;44.752;-0.374;2023-02-02T07:46:21;9.30;97.70
45693;DHT22;31402;44.752;-0.374;2023-02-02T07:48:47;9.20;97.90
45693;DHT22;31402;44.752;-0.374;2023-02-02T07:51:15;9.30;97.90
45693;DHT22;31402;44.752;-0.374;2023-02-02T07:53:43;9.30;97.90
45693;DHT22;31402;44.752;-0.374;2023-02-02T07:56:10;9.50;97.60
45693;DHT22;31402;44.752;-0.374;2023-02-02T07:58:36;9.50;97.40
45693;DHT22;31402;44.752;-0.374;2023-02-02T08:01:04;9.60;97.30
45693;DHT22;31402;44.752;-0.374;2023-02-02T08:03:30;9.60;97.20
45693;DHT22;31402;44.752;-0.374;2023-02-02T08:05:56;9.70;96.90
45693;DHT22;31402;44.752;-0.374;2023-02-02T08:08:23;9.60;97.10
45693;DHT22;31402;44.752;-0.374;2023-02-02T08:10:50;9.40;97.30
45693;DHT22;31402;44.752;-0.374;2023-02-02T08:13:16;9.40;97.40
45693;DHT22;31402;44.752;-0.374;2023-02-02T08:15:42;9.40;97.30
45693;DHT22;31402;44.752;-0.374;2023-02-02T08:18:07;9.40;97.40
45693;DHT22;31402;44.752;-0.374;2023-02-02T08:20:33;9.40;97.40
45693;DHT22;31402;44.752;-0.374;2023-02-02T08:22:59;9.40;97.30
45693;DHT22;31402;44.752;-0.374;2023-02-02T08:25:25;9.30;97.40
45693;DHT22;31402;44.752;-0.374;2023-02-02T08:27:55;9.50;97.30
45693;DHT22;31402;44.752;-0.374;2023-02-02T08:30:24;9.70;97.10
45693;DHT22;31402;44.752;-0.374;2023-02-02T08:32:49;9.80;97.30
45693;DHT22;31402;44.752;-0.374;2023-02-02T08:35:15;9.80;97.00
45693;DHT22;31402;44.752;-0.374;2023-02-02T08:37:46;10.00;96.80
45693;DHT22;31402;44.752;-0.374;2023-02-02T08:40:12;10.00;96.60
45693;DHT22;31402;44.752;-0.374;2023-02-02T08:42:37;10.10;96.60
45693;DHT22;31402;44.752;-0.374;2023-02-02T08:45:03;10.00;96.50
45693;DHT22;31402;44.752;-0.374;2023-02-02T08:47:29;10.00;96.80
45693;DHT22;31402;44.752;-0.374;2023-02-02T08:49:55;10.20;96.60
45693;DHT22;31402;44.752;-0.374;2023-02-02T08:52:21;10.30;96.30
45693;DHT22;31402;44.752;-0.374;2023-02-02T08:54:46;10.40;96.30
45693;DHT22;31402;44.752;-0.374;2023-02-02T08:57:12;10.60;96.20
45693;DHT22;31402;44.752;-0.374;2023-02-02T08:59:38;10.70;96.10
45693;DHT22;31402;44.752;-0.374;2023-02-02T09:02:04;10.90;96.40
45693;DHT22;31402;44.752;-0.374;2023-02-02T09:04:29;11.10;96.30
45693;DHT22;31402;44.752;-0.374;2023-02-02T09:06:55;11.20;95.90
45693;DHT22;31402;44.752;-0.374;2023-02-02T09:09:21;11.40;96.00
45693;DHT22;31402;44.752;-0.374;2023-02-02T09:11:47;11.70;95.50
45693;DHT22;31402;44.752;-0.374;2023-02-02T09:14:13;11.80;95.20
45693;DHT22;31402;44.752;-0.374;2023-02-02T09:16:39;12.10;95.00
45693;DHT22;31402;44.752;-0.374;2023-02-02T09:19:05;12.40;94.70
45693;DHT22;31402;44.752;-0.374;2023-02-02T09:21:31;12.50;94.20
45693;DHT22;31402;44.752;-0.374;2023-02-02T09:24:05;12.70;94.20
45693;DHT22;31402;44.752;-0.374;2023-02-02T09:26:31;12.90;93.90
45693;DHT22;31402;44.752;-0.374;2023-02-02T09:29:03;13.10;93.50
45693;DHT22;31402;44.752;-0.374;2023-02-02T09:31:32;13.20;93.20
45693;DHT22;31402;44.752;-0.374;2023-02-02T09:34:02;13.30;93.00
45693;DHT22;31402;44.752;-0.374;2023-02-02T09:36:28;13.40;92.80
45693;DHT22;31402;44.752;-0.374;2023-02-02T09:38:54;13.50;93.10
45693;DHT22;31402;44.752;-0.374;2023-02-02T09:42:07;13.70;92.70
45693;DHT22;31402;44.752;-0.374;2023-02-02T09:50:21;14.10;92.40
45693;DHT22;31402;44.752;-0.374;2023-02-02T09:52:54;14.30;91.40
45693;DHT22;31402;44.752;-0.374;2023-02-02T09:55:38;14.30;90.90
45693;DHT22;31402;44.752;-0.374;2023-02-02T09:58:23;14.40;89.70
45693;DHT22;31402;44.752;-0.374;2023-02-02T10:01:19;14.50;90.60
45693;DHT22;31402;44.752;-0.374;2023-02-02T10:03:56;14.50;90.20
45693;DHT22;31402;44.752;-0.374;2023-02-02T10:06:38;14.50;88.20
45693;DHT22;31402;44.752;-0.374;2023-02-02T10:20:44;14.40;84.80
45693;DHT22;31402;44.752;-0.374;2023-02-02T10:26:03;14.40;83.80
45693;DHT22;31402;44.752;-0.374;2023-02-02T10:28:44;14.30;84.60
45693;DHT22;31402;44.752;-0.374;2023-02-02T10:31:21;14.30;85.90
45693;DHT22;31402;44.752;-0.374;2023-02-02T10:34:13;14.40;85.30
45693;DHT22;31402;44.752;-0.374;2023-02-02T10:37:01;14.30;81.80
45693;DHT22;31402;44.752;-0.374;2023-02-02T10:39:34;14.30;82.30
45693;DHT22;31402;44.752;-0.374;2023-02-02T10:42:32;14.40;82.80
45693;DHT22;31402;44.752;-0.374;2023-02-02T10:45:12;14.30;83.50
45693;DHT22;31402;44.752;-0.374;2023-02-02T10:47:38;14.40;81.90
45693;DHT22;31402;44.752;-0.374;2023-02-02T10:50:21;14.40;81.90
45693;DHT22;31402;44.752;-0.374;2023-02-02T10:52:55;14.30;83.00
45693;DHT22;31402;44.752;-0.374;2023-02-02T10:55:40;14.40;81.90
45693;DHT22;31402;44.752;-0.374;2023-02-02T11:03:14;14.70;81.80
45693;DHT22;31402;44.752;-0.374;2023-02-02T11:05:41;14.80;83.30
45693;DHT22;31402;44.752;-0.374;2023-02-02T11:08:43;14.90;80.40
45693;DHT22;31402;44.752;-0.374;2023-02-02T11:13:54;14.80;79.00
45693;DHT22;31402;44.752;-0.374;2023-02-02T11:16:28;14.70;81.20
45693;DHT22;31402;44.752;-0.374;2023-02-02T11:18:54;14.70;82.30
45693;DHT22;31402;44.752;-0.374;2023-02-02T11:21:32;14.80;80.20
45693;DHT22;31402;44.752;-0.374;2023-02-02T11:24:02;14.90;79.80
45693;DHT22;31402;44.752;-0.374;2023-02-02T11:26:44;15.00;80.30
45693;DHT22;31402;44.752;-0.374;2023-02-02T11:29:17;14.90;80.80
45693;DHT22;31402;44.752;-0.374;2023-02-02T11:31:45;14.90;79.70
45693;DHT22;31402;44.752;-0.374;2023-02-02T11:34:24;14.90;80.60
45693;DHT22;31402;44.752;-0.374;2023-02-02T11:37:03;14.90;80.90
45693;DHT22;31402;44.752;-0.374;2023-02-02T11:39:35;14.90;80.90
45693;DHT22;31402;44.752;-0.374;2023-02-02T11:42:07;14.70;81.20
45693;DHT22;31402;44.752;-0.374;2023-02-02T11:44:37;14.80;82.50
45693;DHT22;31402;44.752;-0.374;2023-02-02T11:47:04;14.80;84.20
45693;DHT22;31402;44.752;-0.374;2023-02-02T11:49:36;14.90;83.80
45693;DHT22;31402;44.752;-0.374;2023-02-02T11:52:06;15.10;80.90
45693;DHT22;31402;44.752;-0.374;2023-02-02T11:54:40;15.20;80.50
45693;DHT22;31402;44.752;-0.374;2023-02-02T11:57:19;15.20;80.90
45693;DHT22;31402;44.752;-0.374;2023-02-02T11:59:46;15.00;82.00
45693;DHT22;31402;44.752;-0.374;2023-02-02T12:04:39;15.00;85.90
45693;DHT22;31402;44.752;-0.374;2023-02-02T12:07:26;15.20;83.60
45693;DHT22;31402;44.752;-0.374;2023-02-02T12:09:57;15.30;82.50
45693;DHT22;31402;44.752;-0.374;2023-02-02T12:15:23;15.40;83.60
45693;DHT22;31402;44.752;-0.374;2023-02-02T12:32:02;15.80;76.90
45693;DHT22;31402;44.752;-0.374;2023-02-02T12:37:39;15.60;78.60
45693;DHT22;31402;44.752;-0.374;2023-02-02T13:02:29;15.60;77.90
45693;DHT22;31402;44.752;-0.374;2023-02-02T13:08:27;15.60;78.70
45693;DHT22;31402;44.752;-0.374;2023-02-02T13:11:01;15.50;78.70
45693;DHT22;31402;44.752;-0.374;2023-02-02T13:13:37;15.60;77.20
45693;DHT22;31402;44.752;-0.374;2023-02-02T13:16:07;15.70;76.90
45693;DHT22;31402;44.752;-0.374;2023-02-02T13:18:43;15.60;77.10
45693;DHT22;31402;44.752;-0.374;2023-02-02T13:21:13;15.60;77.10
45693;DHT22;31402;44.752;-0.374;2023-02-02T13:23:50;15.50;78.40
45693;DHT22;31402;44.752;-0.374;2023-02-02T13:26:22;15.50;78.60
45693;DHT22;31402;44.752;-0.374;2023-02-02T13:29:00;15.30;79.30
45693;DHT22;31402;44.752;-0.374;2023-02-02T13:32:01;15.40;78.70
45693;DHT22;31402;44.752;-0.374;2023-02-02T13:34:45;15.30;78.10
45693;DHT22;31402;44.752;-0.374;2023-02-02T13:37:24;15.20;79.00
45693;DHT22;31402;44.752;-0.374;2023-02-02T13:40:02;15.20;79.20
45693;DHT22;31402;44.752;-0.374;2023-02-02T13:42:48;15.10;79.60
45693;DHT22;31402;44.752;-0.374;2023-02-02T13:56:48;15.20;80.50
45693;DHT22;31402;44.752;-0.374;2023-02-02T14:02:22;15.30;79.50
45693;DHT22;31402;44.752;-0.374;2023-02-02T14:04:54;15.30;79.50
45693;DHT22;31402;44.752;-0.374;2023-02-02T14:07:47;15.40;78.30
45693;DHT22;31402;44.752;-0.374;2023-02-02T14:10:43;15.50;78.00
45693;DHT22;31402;44.752;-0.374;2023-02-02T14:16:40;15.20;82.60
45693;DHT22;31402;44.752;-0.374;2023-02-02T14:19:45;15.20;80.00
45693;DHT22;31402;44.752;-0.374;2023-02-02T14:22:04;15.30;78.90
45693;DHT22;31402;44.752;-0.374;2023-02-02T14:29:35;15.50;80.20
45693;DHT22;31402;44.752;-0.374;2023-02-02T14:34:50;15.60;79.00
45693;DHT22;31402;44.752;-0.374;2023-02-02T14:51:24;15.20;80.10
45693;DHT22;31402;44.752;-0.374;2023-02-02T14:53:59;15.10;80.30
45693;DHT22;31402;44.752;-0.374;2023-02-02T14:56:43;15.00;80.50
45693;DHT22;31402;44.752;-0.374;2023-02-02T15:02:05;15.00;80.10
45693;DHT22;31402;44.752;-0.374;2023-02-02T15:04:31;15.20;79.80
45693;DHT22;31402;44.752;-0.374;2023-02-02T15:07:49;15.30;79.70
45693;DHT22;31402;44.752;-0.374;2023-02-02T15:10:03;15.00;80.80
45693;DHT22;31402;44.752;-0.374;2023-02-02T15:12:43;14.90;81.90
45693;DHT22;31402;44.752;-0.374;2023-02-02T15:15:22;14.90;81.10
45693;DHT22;31402;44.752;-0.374;2023-02-02T15:18:17;14.90;80.90
45693;DHT22;31402;44.752;-0.374;2023-02-02T15:20:52;14.80;81.60
45693;DHT22;31402;44.752;-0.374;2023-02-02T15:23:39;14.60;82.80
45693;DHT22;31402;44.752;-0.374;2023-02-02T15:26:11;14.50;82.80
45693;DHT22;31402;44.752;-0.374;2023-02-02T15:28:58;14.50;84.10
45693;DHT22;31402;44.752;-0.374;2023-02-02T15:34:01;14.40;83.90
45693;DHT22;31402;44.752;-0.374;2023-02-02T15:36:32;14.30;83.20
45693;DHT22;31402;44.752;-0.374;2023-02-02T15:39:01;14.50;84.20
45693;DHT22;31402;44.752;-0.374;2023-02-02T15:41:41;14.70;84.10
45693;DHT22;31402;44.752;-0.374;2023-02-02T15:44:24;14.80;83.10
45693;DHT22;31402;44.752;-0.374;2023-02-02T15:46:52;15.00;80.80
45693;DHT22;31402;44.752;-0.374;2023-02-02T15:51:50;14.60;83.00
45693;DHT22;31402;44.752;-0.374;2023-02-02T15:56:51;14.40;83.90
45693;DHT22;31402;44.752;-0.374;2023-02-02T15:59:23;14.40;84.30
45693;DHT22;31402;44.752;-0.374;2023-02-02T16:01:59;14.50;83.20
45693;DHT22;31402;44.752;-0.374;2023-02-02T16:04:40;14.50;83.40
45693;DHT22;31402;44.752;-0.374;2023-02-02T16:07:29;14.60;83.40
45693;DHT22;31402;44.752;-0.374;2023-02-02T16:10:02;14.60;83.40
45693;DHT22;31402;44.752;-0.374;2023-02-02T16:12:28;14.50;84.10
45693;DHT22;31402;44.752;-0.374;2023-02-02T16:14:54;14.40;83.10
45693;DHT22;31402;44.752;-0.374;2023-02-02T16:17:27;14.30;83.10
45693;DHT22;31402;44.752;-0.374;2023-02-02T16:20:08;14.30;83.40
45693;DHT22;31402;44.752;-0.374;2023-02-02T16:22:36;14.10;83.60
45693;DHT22;31402;44.752;-0.374;2023-02-02T16:25:07;14.10;83.00
45693;DHT22;31402;44.752;-0.374;2023-02-02T16:27:34;14.10;84.00
45693;DHT22;31402;44.752;-0.374;2023-02-02T16:30:06;14.30;83.80
45693;DHT22;31402;44.752;-0.374;2023-02-02T16:32:33;14.20;82.90
45693;DHT22;31402;44.752;-0.374;2023-02-02T16:35:02;14.10;83.20
45693;DHT22;31402;44.752;-0.374;2023-02-02T16:37:31;14.20;82.60
45693;DHT22;31402;44.752;-0.374;2023-02-02T16:42:41;14.00;82.60
45693;DHT22;31402;44.752;-0.374;2023-02-02T16:45:30;13.80;83.40
45693;DHT22;31402;44.752;-0.374;2023-02-02T16:53:32;13.50;84.60
45693;DHT22;31402;44.752;-0.374;2023-02-02T16:55:59;13.50;84.60
45693;DHT22;31402;44.752;-0.374;2023-02-02T16:58:26;13.40;85.20
45693;DHT22;31402;44.752;-0.374;2023-02-02T17:03:35;13.40;85.30
45693;DHT22;31402;44.752;-0.374;2023-02-02T17:06:02;13.40;85.90
45693;DHT22;31402;44.752;-0.374;2023-02-02T17:08:34;13.30;85.90
45693;DHT22;31402;44.752;-0.374;2023-02-02T17:13:43;13.30;85.60
45693;DHT22;31402;44.752;-0.374;2023-02-02T17:16:15;13.20;85.70
45693;DHT22;31402;44.752;-0.374;2023-02-02T17:18:42;13.20;85.70
45693;DHT22;31402;44.752;-0.374;2023-02-02T17:21:16;13.20;86.20
45693;DHT22;31402;44.752;-0.374;2023-02-02T17:23:43;13.10;86.40
45693;DHT22;31402;44.752;-0.374;2023-02-02T17:26:10;13.10;86.50
45693;DHT22;31402;44.752;-0.374;2023-02-02T17:28:38;13.00;86.50
45693;DHT22;31402;44.752;-0.374;2023-02-02T17:31:10;13.00;86.60
45693;DHT22;31402;44.752;-0.374;2023-02-02T17:33:37;13.00;86.80
45693;DHT22;31402;44.752;-0.374;2023-02-02T17:36:03;13.00;87.30
45693;DHT22;31402;44.752;-0.374;2023-02-02T17:38:30;13.00;86.70
45693;DHT22;31402;44.752;-0.374;2023-02-02T17:41:01;12.90;86.40
45693;DHT22;31402;44.752;-0.374;2023-02-02T17:43:31;12.90;86.80
45693;DHT22;31402;44.752;-0.374;2023-02-02T17:45:58;12.80;86.60
45693;DHT22;31402;44.752;-0.374;2023-02-02T17:48:24;12.70;86.80
45693;DHT22;31402;44.752;-0.374;2023-02-02T17:50:50;12.70;87.00
45693;DHT22;31402;44.752;-0.374;2023-02-02T17:53:18;12.70;87.70
45693;DHT22;31402;44.752;-0.374;2023-02-02T17:55:45;12.60;87.70
45693;DHT22;31402;44.752;-0.374;2023-02-02T17:58:12;12.60;87.70
45693;DHT22;31402;44.752;-0.374;2023-02-02T18:00:43;12.60;87.70
45693;DHT22;31402;44.752;-0.374;2023-02-02T18:03:21;12.60;87.70
45693;DHT22;31402;44.752;-0.374;2023-02-02T18:05:48;12.60;88.00
45693;DHT22;31402;44.752;-0.374;2023-02-02T18:08:14;12.50;88.10
45693;DHT22;31402;44.752;-0.374;2023-02-02T18:10:40;12.40;88.00
45693;DHT22;31402;44.752;-0.374;2023-02-02T18:13:07;12.40;88.30
45693;DHT22;31402;44.752;-0.374;2023-02-02T18:15:34;12.40;88.70
45693;DHT22;31402;44.752;-0.374;2023-02-02T18:18:00;12.40;88.40
45693;DHT22;31402;44.752;-0.374;2023-02-02T18:20:26;12.40;88.40
45693;DHT22;31402;44.752;-0.374;2023-02-02T18:22:52;12.40;88.30
45693;DHT22;31402;44.752;-0.374;2023-02-02T18:25:18;12.30;88.10
45693;DHT22;31402;44.752;-0.374;2023-02-02T18:27:44;12.20;88.90
45693;DHT22;31402;44.752;-0.374;2023-02-02T18:30:11;12.20;88.80
45693;DHT22;31402;44.752;-0.374;2023-02-02T18:32:38;12.20;88.80